Time;durP1;ratioP1;P1;durP2;ratioP2;P2;SDS_P1;SDS_P2;PMS_P1;PMS_P2;Temp;Humidity;BMP_temperature;BMP_pressure;BME280_temperature;BME280_humidity;BME280_pressure;Samples;Min_cycle;Max_cycle;Signal;HPM_P1;HPM_P2
2022/03/19 00:01:28;;;;;;;5.57;1.90;;;;;;;;;;5077350;28;20028;-79
2022/03/19 00:03:53;;;;;;;5.70;2.08;;;;;;;;;;5095464;28;20032;-79
2022/03/19 00:06:19;;;;;;;5.93;2.28;;;;;;;;;;5095778;28;20082;-79
2022/03/19 00:08:45;;;;;;;4.30;1.80;;;;;;;;;;5095561;28;20466;-80
2022/03/19 00:11:11;;;;;;;5.78;2.08;;;;;;;;;;5077620;28;20028;-80
2022/03/19 00:13:36;;;;;;;4.60;1.95;;;;;;;;;;5060520;28;20441;-78
2022/03/19 00:16:02;;;;;;;4.97;2.15;;;;;;;;;;5095230;28;20092;-79
2022/03/19 00:18:27;;;;;;;7.53;2.20;;;;;;;;;;5095393;28;20028;-79
2022/03/19 00:20:53;;;;;;;6.55;2.88;;;;;;;;;;5076830;28;20028;-79
2022/03/19 00:23:18;;;;;;;5.80;2.30;;;;;;;;;;5060306;28;20173;-79
2022/03/19 00:25:44;;;;;;;4.80;2.20;;;;;;;;;;5076790;28;20040;-79
2022/03/19 00:28:09;;;;;;;4.50;1.70;;;;;;;;;;5043432;28;20031;-79
2022/03/19 00:30:35;;;;;;;5.07;1.92;;;;;;;;;;5094799;28;20356;-78
2022/03/19 00:33:00;;;;;;;10.55;2.40;;;;;;;;;;5060137;28;20036;-81
2022/03/19 00:35:25;;;;;;;3.45;1.70;;;;;;;;;;5095080;28;20429;-81
2022/03/19 00:37:53;;;;;;;4.07;1.83;;;;;;;;;;5077620;28;20028;-81
2022/03/19 00:40:21;;;;;;;6.43;2.20;;;;;;;;;;5077117;28;20024;-79
2022/03/19 00:42:48;;;;;;;5.60;2.00;;;;;;;;;;5077578;28;20028;-79
2022/03/19 00:45:13;;;;;;;6.40;1.80;;;;;;;;;;5060017;28;20028;-79
2022/03/19 00:47:39;;;;;;;5.25;1.75;;;;;;;;;;5076754;28;20429;-81
2022/03/19 00:50:05;;;;;;;4.40;2.20;;;;;;;;;;5076509;28;20020;-79
2022/03/19 00:52:31;;;;;;;5.22;2.05;;;;;;;;;;5059515;28;20036;-79
2022/03/19 00:54:56;;;;;;;5.28;1.92;;;;;;;;;;5094680;28;20043;-79
2022/03/19 00:57:21;;;;;;;6.88;1.95;;;;;;;;;;5059567;28;20054;-82
2022/03/19 00:59:47;;;;;;;6.55;2.33;;;;;;;;;;5076007;28;20043;-80
2022/03/19 01:02:12;;;;;;;3.85;1.67;;;;;;;;;;5076099;28;20107;-81
2022/03/19 01:04:38;;;;;;;7.72;2.25;;;;;;;;;;5094187;28;20039;-79
2022/03/19 01:07:03;;;;;;;5.43;2.15;;;;;;;;;;5094346;28;20035;-79
2022/03/19 01:09:29;;;;;;;15.57;2.00;;;;;;;;;;5076505;28;20055;-79
2022/03/19 01:11:54;;;;;;;3.75;1.73;;;;;;;;;;5076188;28;20034;-79
2022/03/19 01:14:20;;;;;;;6.85;1.88;;;;;;;;;;5075679;28;20059;-79
2022/03/19 01:16:46;;;;;;;4.75;1.80;;;;;;;;;;5076271;28;20031;-81
2022/03/19 01:19:11;;;;;;;7.82;2.30;;;;;;;;;;5059035;28;20051;-81
2022/03/19 01:21:37;;;;;;;4.35;1.70;;;;;;;;;;5094222;28;20459;-81
2022/03/19 01:24:03;;;;;;;5.47;1.60;;;;;;;;;;5094416;28;20524;-79
2022/03/19 01:26:29;;;;;;;3.80;1.45;;;;;;;;;;5094360;28;20072;-82
2022/03/19 01:28:55;;;;;;;3.63;1.55;;;;;;;;;;5075829;28;20074;-81
2022/03/19 01:31:25;;;;;;;6.32;1.88;;;;;;;;;;5060374;28;20039;-81
2022/03/19 01:33:51;;;;;;;5.65;1.80;;;;;;;;;;5095172;28;20494;-83
2022/03/19 01:36:17;;;;;;;4.68;1.92;;;;;;;;;;5094397;28;20036;-80
2022/03/19 01:38:42;;;;;;;5.78;2.13;;;;;;;;;;5094224;28;20394;-81
2022/03/19 01:41:08;;;;;;;9.77;2.33;;;;;;;;;;5075842;28;20028;-81
2022/03/19 01:43:36;;;;;;;6.13;1.77;;;;;;;;;;5094650;28;20031;-82
2022/03/19 01:46:02;;;;;;;4.95;1.60;;;;;;;;;;5076024;28;20024;-81
2022/03/19 01:48:27;;;;;;;4.13;2.03;;;;;;;;;;5093611;28;20032;-80
2022/03/19 01:50:53;;;;;;;6.45;2.17;;;;;;;;;;5075893;28;20097;-80
2022/03/19 01:53:18;;;;;;;7.05;2.00;;;;;;;;;;5093517;28;20040;-80
2022/03/19 01:55:44;;;;;;;4.30;2.03;;;;;;;;;;5075910;28;20467;-79
2022/03/19 01:58:10;;;;;;;3.83;1.77;;;;;;;;;;5075326;28;20081;-80
2022/03/19 02:00:35;;;;;;;4.97;1.88;;;;;;;;;;5075520;28;20409;-80
2022/03/19 02:03:01;;;;;;;3.97;1.75;;;;;;;;;;5076139;28;20032;-81
2022/03/19 02:05:26;;;;;;;5.88;1.98;;;;;;;;;;5075362;28;20028;-81
2022/03/19 02:07:52;;;;;;;6.95;2.03;;;;;;;;;;5057465;28;20467;-80
2022/03/19 02:10:19;;;;;;;8.43;2.40;;;;;;;;;;5075419;28;20233;-81
2022/03/19 02:12:45;;;;;;;6.13;1.90;;;;;;;;;;5077133;28;20024;-81
2022/03/19 02:15:11;;;;;;;6.05;2.20;;;;;;;;;;5093498;28;20028;-81
2022/03/19 02:17:37;;;;;;;5.68;1.95;;;;;;;;;;5094517;28;20472;-79
2022/03/19 02:20:04;;;;;;;6.85;2.00;;;;;;;;;;5075147;28;20064;-81
2022/03/19 02:22:30;;;;;;;6.05;1.92;;;;;;;;;;5093349;28;20028;-79
2022/03/19 02:27:42;;;;;;;4.10;1.88;;;;;;;;;;5078507;28;20035;-81
2022/03/19 02:30:10;;;;;;;4.47;1.88;;;;;;;;;;5075452;28;20052;-79
2022/03/19 02:32:35;;;;;;;6.32;2.00;;;;;;;;;;5058473;28;20028;-79
2022/03/19 02:35:02;;;;;;;6.32;1.85;;;;;;;;;;5075448;28;20040;-80
2022/03/19 02:37:39;;;;;;;6.20;2.83;;;;;;;;;;5074909;28;20020;-81
2022/03/19 02:40:09;;;;;;;6.47;2.40;;;;;;;;;;5093121;28;20448;-80
2022/03/19 02:42:34;;;;;;;6.60;1.95;;;;;;;;;;5093408;28;20102;-79
2022/03/19 02:45:00;;;;;;;8.05;2.20;;;;;;;;;;5075035;28;20077;-80
2022/03/19 02:47:25;;;;;;;6.05;2.15;;;;;;;;;;5041436;28;20089;-80
2022/03/19 02:49:51;;;;;;;6.65;1.70;;;;;;;;;;5058163;28;20036;-80
2022/03/19 02:52:16;;;;;;;5.93;1.90;;;;;;;;;;5092663;28;20495;-80
2022/03/19 02:54:42;;;;;;;6.68;1.95;;;;;;;;;;5092565;28;20080;-80
2022/03/19 02:57:07;;;;;;;6.30;2.50;;;;;;;;;;5092941;28;20107;-80
2022/03/19 02:59:34;;;;;;;6.85;2.13;;;;;;;;;;5074667;28;20093;-79
2022/03/19 03:02:02;;;;;;;4.65;1.92;;;;;;;;;;5058184;28;20518;-80
2022/03/19 03:04:28;;;;;;;5.45;2.10;;;;;;;;;;5074855;28;20020;-80
2022/03/19 03:06:55;;;;;;;6.05;2.03;;;;;;;;;;5092773;28;20024;-80
2022/03/19 03:09:22;;;;;;;5.85;2.15;;;;;;;;;;5057797;28;20013;-79
2022/03/19 03:11:48;;;;;;;5.40;1.92;;;;;;;;;;5074606;28;20016;-79
2022/03/19 03:14:14;;;;;;;6.47;1.75;;;;;;;;;;5092606;28;20489;-79
2022/03/19 03:16:41;;;;;;;6.90;2.28;;;;;;;;;;5074655;28;20523;-80
2022/03/19 03:19:08;;;;;;;5.15;1.65;;;;;;;;;;5075058;28;20034;-79
2022/03/19 03:21:34;;;;;;;4.60;1.98;;;;;;;;;;5096421;28;20034;-80
2022/03/19 03:24:01;;;;;;;6.80;2.20;;;;;;;;;;5078558;28;20016;-79
2022/03/19 03:26:27;;;;;;;4.32;2.00;;;;;;;;;;5096522;28;20032;-80
2022/03/19 03:28:52;;;;;;;4.40;1.95;;;;;;;;;;5078286;28;20047;-80
2022/03/19 03:31:18;;;;;;;3.17;1.88;;;;;;;;;;5077997;28;20101;-80
2022/03/19 03:33:43;;;;;;;9.23;1.98;;;;;;;;;;5078058;28;20051;-80
2022/03/19 03:36:09;;;;;;;6.03;2.00;;;;;;;;;;5095951;28;20028;-80
2022/03/19 03:38:34;;;;;;;5.20;2.00;;;;;;;;;;5096300;28;20028;-80
2022/03/19 03:41:00;;;;;;;6.15;2.13;;;;;;;;;;5060839;28;20024;-80
2022/03/19 03:43:25;;;;;;;5.38;1.95;;;;;;;;;;5078050;28;20097;-80
2022/03/19 03:45:51;;;;;;;5.03;1.95;;;;;;;;;;5077847;28;20032;-80
2022/03/19 03:48:17;;;;;;;3.17;1.98;;;;;;;;;;5096224;28;20035;-80
2022/03/19 03:50:42;;;;;;;5.95;1.90;;;;;;;;;;5077825;28;20040;-80
2022/03/19 03:53:08;;;;;;;6.50;2.25;;;;;;;;;;5077714;28;20094;-80
2022/03/19 03:55:35;;;;;;;6.28;2.15;;;;;;;;;;5077600;28;20028;-80
2022/03/19 03:58:01;;;;;;;4.78;2.20;;;;;;;;;;5077504;28;20036;-80
2022/03/19 04:00:27;;;;;;;3.85;2.00;;;;;;;;;;5044120;28;20032;-80
2022/03/19 04:02:53;;;;;;;6.93;2.08;;;;;;;;;;5060795;28;20544;-80
2022/03/19 04:05:18;;;;;;;6.40;2.10;;;;;;;;;;5060496;28;20031;-80
2022/03/19 04:07:43;;;;;;;8.40;2.30;;;;;;;;;;5060373;28;20032;-79
2022/03/19 04:10:09;;;;;;;4.00;1.70;;;;;;;;;;5078402;28;20103;-80
2022/03/19 04:12:35;;;;;;;8.13;2.08;;;;;;;;;;5060900;28;20023;-80
2022/03/19 04:15:01;;;;;;;3.40;2.00;;;;;;;;;;5079538;28;20440;-79
2022/03/19 04:17:26;;;;;;;5.78;2.13;;;;;;;;;;5077173;28;20127;-80
2022/03/19 04:19:52;;;;;;;7.38;2.75;;;;;;;;;;5095046;28;20030;-80
2022/03/19 04:22:17;;;;;;;8.07;2.17;;;;;;;;;;5095547;28;20054;-80
2022/03/19 04:24:43;;;;;;;6.57;2.30;;;;;;;;;;5060512;28;20036;-80
2022/03/19 04:27:09;;;;;;;4.68;2.40;;;;;;;;;;5061044;28;20127;-80
2022/03/19 04:29:35;;;;;;;5.72;2.22;;;;;;;;;;5095249;28;20020;-79
2022/03/19 04:32:00;;;;;;;4.30;2.00;;;;;;;;;;5076737;28;20036;-80
2022/03/19 04:34:25;;;;;;;5.63;2.28;;;;;;;;;;5060288;28;20117;-80
2022/03/19 04:36:51;;;;;;;5.43;2.30;;;;;;;;;;5095119;28;20463;-80
2022/03/19 04:39:16;;;;;;;3.70;2.05;;;;;;;;;;5094695;28;20017;-80
2022/03/19 04:41:42;;;;;;;5.85;1.90;;;;;;;;;;5076547;28;20032;-80
2022/03/19 04:44:08;;;;;;;5.25;2.15;;;;;;;;;;5076442;28;20126;-80
2022/03/19 04:46:34;;;;;;;2.78;1.88;;;;;;;;;;5076845;28;20486;-80
2022/03/19 04:48:59;;;;;;;5.45;2.17;;;;;;;;;;5075905;28;20039;-80
2022/03/19 04:51:33;;;;;;;4.70;2.10;;;;;;;;;;5076259;28;20052;-80
2022/03/19 04:53:59;;;;;;;4.13;1.80;;;;;;;;;;5059542;28;20036;-80
2022/03/19 04:56:27;;;;;;;4.05;1.70;;;;;;;;;;5059925;28;20051;-80
2022/03/19 04:58:54;;;;;;;5.63;2.10;;;;;;;;;;5076127;28;20039;-80
2022/03/19 05:01:20;;;;;;;6.28;2.67;;;;;;;;;;5059320;28;20115;-80
2022/03/19 05:03:46;;;;;;;6.22;2.13;;;;;;;;;;5076494;28;20043;-80
2022/03/19 05:06:11;;;;;;;9.25;2.08;;;;;;;;;;5076548;28;20032;-80
2022/03/19 05:08:36;;;;;;;4.38;2.05;;;;;;;;;;5094621;28;20032;-80
2022/03/19 05:11:14;;;;;;;4.82;1.98;;;;;;;;;;5076085;28;20115;-80
2022/03/19 05:13:44;;;;;;;5.78;2.40;;;;;;;;;;5061442;28;20375;-80
2022/03/19 05:16:13;;;;;;;4.60;2.30;;;;;;;;;;5076303;28;20020;-79
2022/03/19 05:18:39;;;;;;;5.22;2.00;;;;;;;;;;5094713;28;20118;-79
2022/03/19 05:21:05;;;;;;;4.38;1.80;;;;;;;;;;5075844;28;20107;-80
2022/03/19 05:23:31;;;;;;;6.65;2.10;;;;;;;;;;5076102;28;20036;-80
2022/03/19 05:25:58;;;;;;;4.22;2.17;;;;;;;;;;5075832;28;20119;-80
2022/03/19 05:28:24;;;;;;;4.90;2.10;;;;;;;;;;5075737;28;20478;-80
2022/03/19 05:30:50;;;;;;;6.15;1.98;;;;;;;;;;5093629;28;20084;-79
2022/03/19 05:33:15;;;;;;;4.63;1.80;;;;;;;;;;5076109;28;20028;-79
2022/03/19 05:35:41;;;;;;;3.42;2.00;;;;;;;;;;5076593;28;20524;-79
2022/03/19 05:38:07;;;;;;;4.47;2.08;;;;;;;;;;5059270;28;20054;-80
2022/03/19 05:40:33;;;;;;;5.75;2.25;;;;;;;;;;5076010;28;20482;-80
2022/03/19 05:42:58;;;;;;;4.75;2.40;;;;;;;;;;5074968;28;20084;-80
2022/03/19 05:45:23;;;;;;;6.05;2.38;;;;;;;;;;5059091;28;20468;-80
2022/03/19 05:47:49;;;;;;;6.70;2.67;;;;;;;;;;5059302;28;20028;-80
2022/03/19 05:50:15;;;;;;;5.15;2.15;;;;;;;;;;5077591;28;20016;-80
2022/03/19 05:52:41;;;;;;;6.78;2.15;;;;;;;;;;5075899;28;20372;-79
2022/03/19 05:55:08;;;;;;;6.45;2.20;;;;;;;;;;5076600;28;20467;-79
2022/03/19 05:57:34;;;;;;;5.45;2.20;;;;;;;;;;5076914;28;20110;-80
2022/03/19 05:59:59;;;;;;;4.40;2.20;;;;;;;;;;5095121;28;20059;-80
2022/03/19 06:02:26;;;;;;;5.75;2.20;;;;;;;;;;5095321;28;20409;-79
2022/03/19 06:04:52;;;;;;;4.82;2.35;;;;;;;;;;5077355;28;20103;-80
2022/03/19 06:07:18;;;;;;;5.57;1.98;;;;;;;;;;5077262;28;20093;-80
2022/03/19 06:09:43;;;;;;;6.18;2.20;;;;;;;;;;5095784;28;20462;-79
2022/03/19 06:12:09;;;;;;;4.85;2.17;;;;;;;;;;5060866;28;20028;-80
2022/03/19 06:14:34;;;;;;;3.70;1.98;;;;;;;;;;5077007;28;20118;-80
2022/03/19 06:17:00;;;;;;;5.88;2.00;;;;;;;;;;5076805;28;20364;-80
2022/03/19 06:19:25;;;;;;;6.97;2.42;;;;;;;;;;5077415;28;20036;-80
2022/03/19 06:21:50;;;;;;;7.40;2.10;;;;;;;;;;5096110;28;20032;-80
2022/03/19 06:24:17;;;;;;;6.22;2.15;;;;;;;;;;5095996;28;20111;-80
2022/03/19 06:26:42;;;;;;;4.43;2.13;;;;;;;;;;5095475;28;20031;-80
2022/03/19 06:29:08;;;;;;;4.38;1.80;;;;;;;;;;5094991;28;20028;-79
2022/03/19 06:31:33;;;;;;;4.40;2.00;;;;;;;;;;5094226;28;20028;-80
2022/03/19 06:33:59;;;;;;;4.22;2.30;;;;;;;;;;5076374;28;20054;-79
2022/03/19 06:39:08;;;;;;;4.13;2.33;;;;;;;;;;5095471;28;20034;-79
2022/03/19 06:41:34;;;;;;;6.85;2.30;;;;;;;;;;5094766;28;20111;-79
2022/03/19 06:44:00;;;;;;;6.00;2.30;;;;;;;;;;5076900;28;20031;-80
2022/03/19 06:46:25;;;;;;;2.83;1.65;;;;;;;;;;5095889;28;20028;-79
2022/03/19 06:48:51;;;;;;;5.63;2.08;;;;;;;;;;5061376;28;20024;-79
2022/03/19 06:51:17;;;;;;;5.93;2.00;;;;;;;;;;5079208;28;20051;-80
2022/03/19 06:53:43;;;;;;;6.07;2.60;;;;;;;;;;5095415;28;20020;-78
2022/03/19 06:56:09;;;;;;;3.90;1.80;;;;;;;;;;5080046;28;20028;-79
2022/03/19 06:58:34;;;;;;;5.45;2.08;;;;;;;;;;5079761;28;20044;-79
2022/03/19 07:01:03;;;;;;;6.65;2.55;;;;;;;;;;5080165;28;20498;-77
2022/03/19 07:03:32;;;;;;;7.80;2.20;;;;;;;;;;5064204;28;20024;-79
2022/03/19 07:05:58;;;;;;;5.93;2.05;;;;;;;;;;5063979;28;20028;-80
2022/03/19 07:08:23;;;;;;;4.28;2.15;;;;;;;;;;5081910;28;20077;-80
2022/03/19 07:10:52;;;;;;;6.47;2.10;;;;;;;;;;5080429;28;20103;-80
2022/03/19 07:13:18;;;;;;;6.15;1.77;;;;;;;;;;5097905;28;20457;-79
2022/03/19 07:15:43;;;;;;;7.28;2.78;;;;;;;;;;5063009;28;20470;-78
2022/03/19 07:18:09;;;;;;;6.40;2.70;;;;;;;;;;5079868;28;20040;-78
2022/03/19 07:20:35;;;;;;;5.18;2.30;;;;;;;;;;5062270;28;20031;-79
2022/03/19 07:23:05;;;;;;;8.50;2.95;;;;;;;;;;5062217;28;20033;-78
2022/03/19 07:25:36;;;;;;;8.18;2.92;;;;;;;;;;5078822;28;20390;-79
2022/03/19 07:28:07;;;;;;;5.60;2.72;;;;;;;;;;5097041;28;20433;-79
2022/03/19 07:30:33;;;;;;;6.00;2.70;;;;;;;;;;5081091;28;20027;-80
2022/03/19 07:32:59;;;;;;;7.22;2.67;;;;;;;;;;5080077;28;20020;-79
2022/03/19 07:35:25;;;;;;;7.68;3.17;;;;;;;;;;5079886;28;20027;-82
2022/03/19 07:37:51;;;;;;;10.00;3.58;;;;;;;;;;5080320;28;20035;-81
2022/03/19 07:43:09;;;;;;;10.25;3.30;;;;;;;;;;5066621;28;20038;-80
2022/03/19 07:45:35;;;;;;;12.38;3.38;;;;;;;;;;5079875;28;20360;-80
2022/03/19 07:48:01;;;;;;;12.35;3.17;;;;;;;;;;5098272;28;20032;-81
2022/03/19 07:50:27;;;;;;;13.77;4.38;;;;;;;;;;5080036;28;20054;-80
2022/03/19 07:52:52;;;;;;;11.13;3.55;;;;;;;;;;5079653;28;20061;-80
2022/03/19 07:55:18;;;;;;;10.98;3.38;;;;;;;;;;5078862;28;20372;-80
2022/03/19 07:57:43;;;;;;;18.70;4.50;;;;;;;;;;5097687;28;20425;-80
2022/03/19 08:00:09;;;;;;;12.13;3.70;;;;;;;;;;5097530;28;20077;-80
2022/03/19 08:02:35;;;;;;;15.00;3.90;;;;;;;;;;5079903;28;20077;-81
2022/03/19 08:05:03;;;;;;;8.43;3.42;;;;;;;;;;5095803;28;20080;-81
2022/03/19 08:07:29;;;;;;;14.48;3.00;;;;;;;;;;5095474;28;20052;-81
2022/03/19 08:09:54;;;;;;;15.13;3.70;;;;;;;;;;5096285;28;20058;-80
2022/03/19 08:12:20;;;;;;;10.18;3.67;;;;;;;;;;5061269;28;20074;-81
2022/03/19 08:14:45;;;;;;;10.60;3.63;;;;;;;;;;5096139;28;20031;-81
2022/03/19 08:17:11;;;;;;;13.25;3.63;;;;;;;;;;5061386;28;20042;-81
2022/03/19 08:19:36;;;;;;;8.27;3.00;;;;;;;;;;5095465;28;20039;-81
2022/03/19 08:22:03;;;;;;;8.82;3.17;;;;;;;;;;5095751;28;20364;-81
2022/03/19 08:24:28;;;;;;;7.22;2.72;;;;;;;;;;5060853;28;20146;-81
2022/03/19 08:26:54;;;;;;;6.78;3.03;;;;;;;;;;5060628;28;20498;-81
2022/03/19 08:29:23;;;;;;;11.68;3.10;;;;;;;;;;5077431;28;20189;-81
2022/03/19 08:31:50;;;;;;;7.93;3.42;;;;;;;;;;5061012;28;20028;-81
2022/03/19 08:34:15;;;;;;;6.63;2.92;;;;;;;;;;5096048;28;20047;-81
2022/03/19 08:36:40;;;;;;;6.28;2.70;;;;;;;;;;5077169;28;20028;-81
2022/03/19 08:41:50;;;;;;;7.53;2.70;;;;;;;;;;5095263;28;20082;-81
2022/03/19 08:44:15;;;;;;;5.07;2.13;;;;;;;;;;5077049;28;20475;-81
2022/03/19 08:46:40;;;;;;;4.43;2.15;;;;;;;;;;5077006;28;20106;-81
2022/03/19 08:49:06;;;;;;;4.90;2.35;;;;;;;;;;5060212;28;20032;-81
2022/03/19 08:51:40;;;;;;;6.70;2.42;;;;;;;;;;5094854;28;20039;-81
2022/03/19 08:54:11;;;;;;;5.38;2.30;;;;;;;;;;5076617;28;20024;-81
2022/03/19 08:56:37;;;;;;;5.40;2.30;;;;;;;;;;5096812;28;20027;-81
2022/03/19 08:59:03;;;;;;;6.25;2.17;;;;;;;;;;5078464;28;20024;-80
2022/03/19 09:01:29;;;;;;;4.93;1.95;;;;;;;;;;5096980;28;20107;-80
2022/03/19 09:03:55;;;;;;;6.82;2.65;;;;;;;;;;5096257;28;20032;-81
2022/03/19 09:06:21;;;;;;;5.25;2.30;;;;;;;;;;5078735;28;20039;-80
2022/03/19 09:08:47;;;;;;;6.78;2.53;;;;;;;;;;5078492;28;20020;-80
2022/03/19 09:11:12;;;;;;;7.75;2.13;;;;;;;;;;5077916;28;20027;-81
2022/03/19 09:13:38;;;;;;;4.45;1.90;;;;;;;;;;5078598;28;20028;-81
2022/03/19 09:16:05;;;;;;;4.15;1.90;;;;;;;;;;5076391;28;20089;-80
2022/03/19 09:18:30;;;;;;;4.22;1.90;;;;;;;;;;5076377;28;20122;-79
2022/03/19 09:20:57;;;;;;;4.30;2.00;;;;;;;;;;5059784;28;20024;-80
2022/03/19 09:23:22;;;;;;;4.05;1.63;;;;;;;;;;5059731;28;20039;-81
2022/03/19 09:25:47;;;;;;;6.38;1.88;;;;;;;;;;5076912;28;20383;-81
2022/03/19 09:28:13;;;;;;;5.97;1.90;;;;;;;;;;5076827;28;20085;-81
2022/03/19 09:30:38;;;;;;;3.13;1.55;;;;;;;;;;5078655;28;20454;-81
2022/03/19 09:33:03;;;;;;;9.52;1.77;;;;;;;;;;5095539;28;20463;-79
2022/03/19 09:35:29;;;;;;;11.65;2.15;;;;;;;;;;5095069;28;20084;-80
2022/03/19 09:37:55;;;;;;;4.50;1.60;;;;;;;;;;5094613;28;20463;-81
2022/03/19 09:40:21;;;;;;;3.45;1.92;;;;;;;;;;5076074;28;20084;-80
2022/03/19 09:42:52;;;;;;;4.45;1.58;;;;;;;;;;5076407;28;20032;-80
2022/03/19 09:45:19;;;;;;;5.05;1.40;;;;;;;;;;5076231;28;20032;-79
2022/03/19 09:47:44;;;;;;;6.22;1.70;;;;;;;;;;5093956;28;20104;-80
2022/03/19 09:50:10;;;;;;;4.68;1.60;;;;;;;;;;5094205;28;20032;-80
2022/03/19 09:52:38;;;;;;;5.20;1.60;;;;;;;;;;5095000;28;20136;-80
2022/03/19 09:55:04;;;;;;;3.92;1.70;;;;;;;;;;5076271;28;20032;-79
2022/03/19 09:57:30;;;;;;;5.10;1.70;;;;;;;;;;5075881;28;20028;-80
2022/03/19 09:59:55;;;;;;;6.55;1.48;;;;;;;;;;5094143;28;20020;-80
2022/03/19 10:02:21;;;;;;;4.20;2.17;;;;;;;;;;5076259;28;20491;-80
2022/03/19 10:04:53;;;;;;;4.68;1.63;;;;;;;;;;5075635;28;20024;-80
2022/03/19 10:10:07;;;;;;;3.53;1.30;;;;;;;;;;5093981;28;20031;-80
2022/03/19 10:12:33;;;;;;;2.10;1.42;;;;;;;;;;5093505;28;20114;-81
2022/03/19 10:15:00;;;;;;;6.45;1.90;;;;;;;;;;5059506;28;20027;-81
2022/03/19 10:17:36;;;;;;;4.13;1.25;;;;;;;;;;5075947;28;20130;-80
2022/03/19 10:20:12;;;;;;;2.50;1.20;;;;;;;;;;5093665;28;20024;-80
2022/03/19 10:22:43;;;;;;;4.72;1.40;;;;;;;;;;5076378;28;20027;-80
2022/03/19 10:25:11;;;;;;;4.72;1.40;;;;;;;;;;5072253;28;20070;-80
2022/03/19 10:27:40;;;;;;;4.82;1.30;;;;;;;;;;5075843;28;20543;-80
2022/03/19 10:30:06;;;;;;;4.47;1.52;;;;;;;;;;5076870;28;20020;-81
2022/03/19 10:32:31;;;;;;;2.08;1.35;;;;;;;;;;5099243;28;20593;-80
2022/03/19 10:34:57;;;;;;;2.38;1.30;;;;;;;;;;5082150;28;20052;-81
2022/03/19 10:37:39;;;;;;;3.72;1.42;;;;;;;;;;5098561;28;20106;-80
2022/03/19 10:40:07;;;;;;;2.50;1.20;;;;;;;;;;5080209;28;20043;-80
2022/03/19 10:42:38;;;;;;;4.68;1.60;;;;;;;;;;5079957;28;20519;-81
2022/03/19 10:45:08;;;;;;;3.75;1.50;;;;;;;;;;5098091;28;20466;-80
2022/03/19 10:47:45;;;;;;;3.00;1.40;;;;;;;;;;5063593;28;20039;-81
2022/03/19 10:50:24;;;;;;;3.35;1.45;;;;;;;;;;5098877;28;20063;-80
2022/03/19 10:52:52;;;;;;;2.42;1.30;;;;;;;;;;5064565;28;20104;-81
2022/03/19 10:55:18;;;;;;;2.83;1.55;;;;;;;;;;5099069;28;20058;-81
2022/03/19 10:57:45;;;;;;;5.10;1.30;;;;;;;;;;5098870;28;20466;-81
2022/03/19 11:00:11;;;;;;;6.63;1.80;;;;;;;;;;5060445;28;20028;-81
2022/03/19 11:02:41;;;;;;;6.00;1.50;;;;;;;;;;5042448;28;20528;-81
2022/03/19 11:05:07;;;;;;;3.58;1.50;;;;;;;;;;5077005;28;20025;-82
2022/03/19 11:07:33;;;;;;;3.22;1.42;;;;;;;;;;5041999;28;20042;-81
2022/03/19 11:09:59;;;;;;;2.90;1.40;;;;;;;;;;5058894;28;20020;-81
2022/03/19 11:12:31;;;;;;;3.85;1.30;;;;;;;;;;5076503;28;20082;-81
2022/03/19 11:14:58;;;;;;;5.32;2.20;;;;;;;;;;5058667;28;20032;-81
2022/03/19 11:17:30;;;;;;;2.45;1.00;;;;;;;;;;5076350;28;20032;-81
2022/03/19 11:20:01;;;;;;;2.13;1.02;;;;;;;;;;5042702;28;20063;-81
2022/03/19 11:22:50;;;;;;;2.22;1.20;;;;;;;;;;5059168;28;20031;-81
2022/03/19 11:25:28;;;;;;;3.95;1.55;;;;;;;;;;5058739;28;20074;-81
2022/03/19 11:28:06;;;;;;;3.67;1.45;;;;;;;;;;5058130;28;20032;-81
2022/03/19 11:30:36;;;;;;;2.75;1.40;;;;;;;;;;5078625;28;20020;-81
2022/03/19 11:33:06;;;;;;;3.45;1.38;;;;;;;;;;5082061;28;20023;-80
2022/03/19 11:35:38;;;;;;;3.75;1.45;;;;;;;;;;5098797;28;20026;-80
2022/03/19 11:38:18;;;;;;;4.53;1.42;;;;;;;;;;5098631;28;20479;-79
2022/03/19 11:40:47;;;;;;;5.63;1.48;;;;;;;;;;5116661;28;20108;-80
2022/03/19 11:43:31;;;;;;;4.65;1.75;;;;;;;;;;5099232;28;20035;-80
2022/03/19 11:46:07;;;;;;;6.95;1.63;;;;;;;;;;5100238;28;20043;-82
2022/03/19 11:48:38;;;;;;;3.08;1.23;;;;;;;;;;5100075;28;20417;-81
2022/03/19 11:51:20;;;;;;;4.57;1.60;;;;;;;;;;5117771;28;20042;-80
2022/03/19 11:54:20;;;;;;;5.10;1.45;;;;;;;;;;5083150;28;20030;-80
2022/03/19 11:56:47;;;;;;;5.95;1.48;;;;;;;;;;5019711;28;20104;-79
2022/03/19 11:59:12;;;;;;;5.65;1.48;;;;;;;;;;5036550;28;20524;-82
2022/03/19 12:01:59;;;;;;;6.57;1.40;;;;;;;;;;5019620;28;20097;-82
2022/03/19 12:04:40;;;;;;;2.58;1.02;;;;;;;;;;5035992;28;20034;-83
2022/03/19 12:07:06;;;;;;;8.85;1.25;;;;;;;;;;5020661;28;20033;-82
2022/03/19 12:09:35;;;;;;;1.45;0.98;;;;;;;;;;5019862;28;20512;-81
2022/03/19 12:12:16;;;;;;;3.03;1.30;;;;;;;;;;5036803;28;20120;-81
2022/03/19 12:14:42;;;;;;;5.70;1.35;;;;;;;;;;5035638;28;20059;-82
2022/03/19 12:17:19;;;;;;;5.45;1.17;;;;;;;;;;5035820;28;20401;-82
2022/03/19 12:19:51;;;;;;;5.20;1.38;;;;;;;;;;5020014;28;20108;-83
2022/03/19 12:22:27;;;;;;;3.60;1.00;;;;;;;;;;5019524;28;20431;-81
2022/03/19 12:25:16;;;;;;;2.95;1.13;;;;;;;;;;5031433;28;20115;-85
2022/03/19 12:27:44;;;;;;;3.90;2.10;;;;;;;;;;5003072;28;20094;-84
2022/03/19 12:30:10;;;;;;;3.45;1.23;;;;;;;;;;5035976;28;20044;-82
2022/03/19 12:32:54;;;;;;;4.13;1.30;;;;;;;;;;5097470;28;20032;-83
2022/03/19 12:35:40;;;;;;;1.85;0.88;;;;;;;;;;5095632;28;20035;-84
2022/03/19 12:38:06;;;;;;;2.08;1.00;;;;;;;;;;5079879;28;20123;-83
2022/03/19 12:43:17;;;;;;;4.82;1.45;;;;;;;;;;5080509;28;20501;-83
2022/03/19 12:45:50;;;;;;;1.73;0.95;;;;;;;;;;5078021;28;20066;-83
2022/03/19 12:48:20;;;;;;;3.38;1.02;;;;;;;;;;5062492;28;20032;-83
2022/03/19 12:50:49;;;;;;;5.35;1.05;;;;;;;;;;5078467;28;20061;-83
2022/03/19 12:53:15;;;;;;;1.90;0.95;;;;;;;;;;5074831;28;20484;-82
2022/03/19 12:55:40;;;;;;;2.30;0.95;;;;;;;;;;5064403;28;20037;-83
2022/03/19 12:58:06;;;;;;;1.65;1.00;;;;;;;;;;5056074;28;20032;-82
2022/03/19 13:00:31;;;;;;;1.83;1.10;;;;;;;;;;5055636;28;20539;-83
2022/03/19 13:02:57;;;;;;;1.95;1.08;;;;;;;;;;5058711;28;20035;-84
2022/03/19 13:05:23;;;;;;;6.65;1.50;;;;;;;;;;5040306;28;20381;-84
2022/03/19 13:08:04;;;;;;;7.18;1.63;;;;;;;;;;5056587;28;20025;-84
2022/03/19 13:10:30;;;;;;;3.53;1.33;;;;;;;;;;5056552;28;20025;-84
2022/03/19 13:13:06;;;;;;;4.25;1.30;;;;;;;;;;5055857;28;20076;-83
2022/03/19 13:15:32;;;;;;;3.28;1.65;;;;;;;;;;5057217;28;20365;-84
2022/03/19 13:17:57;;;;;;;5.13;1.40;;;;;;;;;;5054767;28;20525;-83
2022/03/19 13:20:23;;;;;;;4.38;1.23;;;;;;;;;;5053633;28;20044;-83
2022/03/19 13:22:48;;;;;;;6.47;1.35;;;;;;;;;;5053738;28;20502;-83
2022/03/19 13:25:14;;;;;;;3.28;1.30;;;;;;;;;;5053458;28;20025;-84
2022/03/19 13:27:39;;;;;;;2.53;1.40;;;;;;;;;;5053526;28;20025;-83
2022/03/19 13:30:12;;;;;;;3.15;1.00;;;;;;;;;;5054874;28;20021;-84
2022/03/19 13:32:37;;;;;;;3.30;1.30;;;;;;;;;;5054577;28;20476;-83
2022/03/19 13:35:03;;;;;;;4.07;1.33;;;;;;;;;;5054800;28;20025;-83
2022/03/19 13:37:37;;;;;;;3.30;1.20;;;;;;;;;;5053311;28;20064;-84
2022/03/19 13:40:04;;;;;;;1.75;1.10;;;;;;;;;;5036513;28;20059;-83
2022/03/19 13:42:34;;;;;;;3.75;1.30;;;;;;;;;;5053621;28;20379;-83
2022/03/19 13:45:04;;;;;;;2.58;1.20;;;;;;;;;;5053978;28;20290;-83
2022/03/19 13:47:49;;;;;;;4.43;1.00;;;;;;;;;;5053258;28;20200;-83
2022/03/19 13:50:17;;;;;;;2.47;0.98;;;;;;;;;;5052554;28;20056;-84
2022/03/19 13:52:44;;;;;;;2.90;1.27;;;;;;;;;;5067275;28;20123;-83
2022/03/19 13:55:14;;;;;;;4.13;1.08;;;;;;;;;;5099481;28;20442;-84
2022/03/19 13:57:45;;;;;;;2.72;1.20;;;;;;;;;;5079923;28;20051;-84
2022/03/19 14:00:24;;;;;;;3.50;0.80;;;;;;;;;;5080479;28;20103;-84
2022/03/19 14:03:07;;;;;;;1.25;0.90;;;;;;;;;;5080691;28;20389;-83
2022/03/19 14:05:40;;;;;;;4.75;1.38;;;;;;;;;;5096616;28;20027;-83
2022/03/19 14:08:15;;;;;;;3.88;1.08;;;;;;;;;;5082521;28;20027;-84
2022/03/19 14:10:44;;;;;;;3.08;1.13;;;;;;;;;;5097211;28;20054;-84
2022/03/19 14:13:32;;;;;;;4.38;1.30;;;;;;;;;;5097928;28;20023;-83
2022/03/19 14:16:06;;;;;;;2.10;1.00;;;;;;;;;;5114707;28;20019;-85
2022/03/19 14:18:32;;;;;;;4.80;1.13;;;;;;;;;;5095966;28;20023;-85
2022/03/19 14:21:02;;;;;;;3.17;0.93;;;;;;;;;;5065831;28;20562;-86
2022/03/19 14:23:27;;;;;;;2.15;1.00;;;;;;;;;;5076883;28;20024;-84
2022/03/19 14:25:53;;;;;;;1.40;0.90;;;;;;;;;;5077846;28;20383;-81
2022/03/19 14:28:20;;;;;;;2.30;0.90;;;;;;;;;;5093917;28;20082;-84
2022/03/19 14:30:47;;;;;;;2.67;1.23;;;;;;;;;;5052251;28;20115;-81
2022/03/19 14:33:13;;;;;;;1.63;0.88;;;;;;;;;;5059070;28;20032;-80
2022/03/19 14:35:50;;;;;;;4.22;1.00;;;;;;;;;;5074597;28;20530;-79
2022/03/19 14:38:38;;;;;;;4.50;1.80;;;;;;;;;;5093468;28;20073;-80
2022/03/19 14:41:10;;;;;;;3.30;1.00;;;;;;;;;;5058371;28;20077;-80
2022/03/19 14:43:37;;;;;;;9.27;1.23;;;;;;;;;;5074853;28;20567;-82
2022/03/19 14:46:05;;;;;;;6.85;1.83;;;;;;;;;;5074569;28;20135;-82
2022/03/19 14:48:32;;;;;;;6.43;1.90;;;;;;;;;;5058939;28;20032;-81
2022/03/19 14:51:02;;;;;;;4.82;1.75;;;;;;;;;;5074916;28;20102;-82
2022/03/19 14:53:39;;;;;;;5.05;1.67;;;;;;;;;;5074646;28;20047;-81
2022/03/19 14:56:07;;;;;;;5.07;1.65;;;;;;;;;;5059385;28;20032;-82
2022/03/19 14:58:33;;;;;;;5.82;1.70;;;;;;;;;;5092922;28;20471;-83
2022/03/19 15:01:01;;;;;;;3.58;1.30;;;;;;;;;;5074904;28;20032;-83
2022/03/19 15:03:26;;;;;;;9.20;1.35;;;;;;;;;;5093287;28;20020;-82